Time;durP1;ratioP1;P1;durP2;ratioP2;P2;SDS_P1;SDS_P2;PMS_P1;PMS_P2;Temp;Humidity;BMP_temperature;BMP_pressure;BME280_temperature;BME280_humidity;BME280_pressure;Samples;Min_cycle;Max_cycle;Signal;HPM_P1;HPM_P2
2022/09/19 00:00:29;;;;;;;13.40;2.55;;;11.80;82.50;;;;;;9185111;19;20011;-67
2022/09/19 00:03:33;;;;;;;13.45;2.00;;;11.90;82.50;;;;;;9183935;19;20011;-67
2022/09/19 00:06:40;;;;;;;18.40;2.33;;;11.90;82.50;;;;;;9182571;19;20002;-67
2022/09/19 00:09:44;;;;;;;16.60;2.20;;;11.90;82.60;;;;;;9182967;19;20090;-66
2022/09/19 00:12:48;;;;;;;10.65;2.63;;;11.90;82.50;;;;;;9184590;19;20026;-67
2022/09/19 00:15:52;;;;;;;11.70;2.03;;;11.90;82.50;;;;;;9180393;19;20014;-67
2022/09/19 00:18:57;;;;;;;;;;;11.90;83.10;;;;;;9185387;19;20015;-67
2022/09/19 00:22:03;;;;;;;13.75;2.00;;;11.90;82.50;;;;;;9184186;19;19940;-67
2022/09/19 00:25:07;;;;;;;12.80;1.90;;;11.80;82.40;;;;;;9182648;19;20420;-67
2022/09/19 00:28:10;;;;;;;17.43;3.17;;;11.80;82.50;;;;;;9184170;19;20339;-67
2022/09/19 00:31:18;;;;;;;19.05;2.10;;;11.80;82.50;;;;;;9184492;19;20014;-68
2022/09/19 00:34:22;;;;;;;10.77;1.85;;;11.80;82.60;;;;;;9179197;19;20424;-65
2022/09/19 00:37:28;;;;;;;13.32;1.95;;;11.80;82.60;;;;;;9184477;19;20015;-65
2022/09/19 00:40:33;;;;;;;16.48;2.08;;;11.90;82.80;;;;;;9183285;19;20019;-66
2022/09/19 00:43:50;;;;;;;13.77;2.17;;;11.90;82.80;;;;;;9183460;19;20033;-67
2022/09/19 00:46:59;;;;;;;20.77;2.20;;;11.90;82.90;;;;;;9181528;19;20010;-68
2022/09/19 00:50:07;;;;;;;18.05;1.67;;;11.90;82.80;;;;;;9183748;19;20036;-67
2022/09/19 00:53:17;;;;;;;14.10;2.00;;;11.90;82.90;;;;;;9183326;19;20426;-67
2022/09/19 00:56:23;;;;;;;16.73;2.35;;;11.90;82.90;;;;;;9181212;19;20536;-67
2022/09/19 00:59:29;;;;;;;10.20;1.58;;;11.90;82.90;;;;;;9183129;19;20126;-67
2022/09/19 01:02:33;;;;;;;13.63;2.30;;;11.90;82.90;;;;;;9182310;19;20010;-67
2022/09/19 01:05:44;;;;;;;;;;;12.00;83.00;;;;;;9182049;19;20039;-67
2022/09/19 01:09:06;;;;;;;16.83;2.65;;;12.00;83.00;;;;;;9181510;19;19936;-67
2022/09/19 01:12:24;;;;;;;10.00;1.85;;;12.00;82.90;;;;;;9180800;19;20018;-67
2022/09/19 01:15:39;;;;;;;15.77;3.10;;;12.00;82.90;;;;;;9182904;19;20058;-67
2022/09/19 01:18:48;;;;;;;14.55;2.53;;;12.00;83.00;;;;;;9179978;19;20476;-67
2022/09/19 01:21:58;;;;;;;13.57;2.20;;;12.10;83.00;;;;;;9182921;19;20022;-68
2022/09/19 01:25:12;;;;;;;11.55;1.70;;;12.10;83.00;;;;;;9181240;19;20022;-67
2022/09/19 01:28:20;;;;;;;14.70;2.25;;;12.10;83.10;;;;;;9182627;19;20018;-67
2022/09/19 01:31:36;;;;;;;12.73;1.67;;;12.10;83.10;;;;;;9180382;19;20014;-68
2022/09/19 01:34:44;;;;;;;18.65;2.15;;;12.10;83.00;;;;;;9175965;19;20015;-67
2022/09/19 01:37:54;;;;;;;13.30;1.55;;;12.10;83.10;;;;;;9180407;19;20014;-67
2022/09/19 01:40:58;;;;;;;17.17;2.55;;;12.10;83.10;;;;;;9179847;19;20011;-67
2022/09/19 01:44:06;;;;;;;12.40;1.80;;;12.10;83.20;;;;;;9179983;19;20022;-67
2022/09/19 01:47:21;;;;;;;16.73;2.95;;;12.10;83.20;;;;;;9179821;19;20018;-67
2022/09/19 01:50:38;;;;;;;7.95;1.20;;;12.10;83.30;;;;;;9182467;19;20037;-67
2022/09/19 01:53:59;;;;;;;16.50;2.10;;;12.10;83.30;;;;;;9180149;19;20010;-67
2022/09/19 01:57:18;;;;;;;11.88;1.65;;;12.10;83.30;;;;;;9179621;19;20015;-68
2022/09/19 02:00:27;;;;;;;15.93;2.30;;;12.10;83.20;;;;;;9179803;19;20007;-67
2022/09/19 02:03:40;;;;;;;15.18;2.33;;;12.10;83.30;;;;;;9179365;19;20508;-67
2022/09/19 02:06:50;;;;;;;11.07;2.00;;;12.10;83.30;;;;;;9176390;19;20015;-68
2022/09/19 02:10:00;;;;;;;11.77;1.60;;;12.10;83.30;;;;;;9175925;19;20377;-67
2022/09/19 02:13:10;;;;;;;16.08;2.20;;;12.10;83.30;;;;;;9178846;19;20109;-68
2022/09/19 02:16:30;;;;;;;11.88;2.58;;;12.20;83.40;;;;;;9176736;19;20042;-67
2022/09/19 02:19:36;;;;;;;10.25;2.15;;;12.10;83.40;;;;;;9179970;19;20014;-67
2022/09/19 02:22:47;;;;;;;8.13;1.70;;;12.20;83.40;;;;;;9178906;19;20484;-68
2022/09/19 02:25:52;;;;;;;13.00;2.50;;;12.20;83.40;;;;;;9177311;19;20018;-66
2022/09/19 02:28:58;;;;;;;10.07;1.50;;;12.20;83.40;;;;;;9178680;19;20039;-67
2022/09/19 02:32:07;;;;;;;16.60;1.55;;;12.20;83.50;;;;;;9177938;19;20022;-67
2022/09/19 02:35:13;;;;;;;14.10;2.20;;;12.20;83.50;;;;;;9173265;19;20022;-67
2022/09/19 02:38:25;;;;;;;18.05;1.90;;;12.20;83.40;;;;;;9177605;19;20007;-67
2022/09/19 02:41:36;;;;;;;9.48;1.92;;;12.20;83.50;;;;;;9177130;19;20018;-67
2022/09/19 02:44:53;;;;;;;15.75;2.03;;;12.20;83.40;;;;;;9176380;19;20467;-67
2022/09/19 02:48:04;;;;;;;11.32;1.90;;;12.20;83.50;;;;;;9177535;19;20040;-66
2022/09/19 02:51:14;;;;;;;17.58;3.33;;;12.20;83.40;;;;;;9176884;19;20030;-67
2022/09/19 02:54:21;;;;;;;17.27;2.28;;;12.10;83.40;;;;;;9179325;19;20086;-67
2022/09/19 02:57:29;;;;;;;15.23;2.25;;;12.10;83.40;;;;;;9177183;19;20015;-67
2022/09/19 03:00:38;;;;;;;15.10;2.13;;;12.10;83.50;;;;;;9176865;19;20024;-66
2022/09/19 03:07:12;;;;;;;18.90;1.95;;;12.10;83.60;;;;;;9174232;19;20015;-67
2022/09/19 03:10:21;;;;;;;15.70;2.50;;;12.10;83.60;;;;;;9173185;19;20464;-66
2022/09/19 03:13:31;;;;;;;16.25;2.72;;;12.10;83.60;;;;;;9173061;19;20025;-67
2022/09/19 03:16:38;;;;;;;16.35;1.98;;;12.10;83.60;;;;;;9176702;19;20099;-66
2022/09/19 03:19:47;;;;;;;7.85;1.75;;;12.10;83.60;;;;;;9183405;19;20037;-67
2022/09/19 03:22:53;;;;;;;13.85;1.65;;;12.20;83.60;;;;;;9184382;19;20015;-68
2022/09/19 03:25:58;;;;;;;19.13;2.47;;;12.20;83.60;;;;;;9182724;19;20022;-67
2022/09/19 03:29:04;;;;;;;7.43;1.90;;;12.20;83.60;;;;;;9186201;19;20022;-68
2022/09/19 03:32:13;;;;;;;16.52;2.38;;;12.20;83.70;;;;;;9184231;19;20018;-67
2022/09/19 03:35:20;;;;;;;15.75;2.40;;;12.20;83.60;;;;;;9181464;19;20014;-67
2022/09/19 03:38:23;;;;;;;14.30;1.88;;;12.20;83.60;;;;;;9185142;19;20007;-67
2022/09/19 03:41:29;;;;;;;12.68;2.08;;;12.20;83.70;;;;;;9182711;19;20018;-68
2022/09/19 03:44:33;;;;;;;14.68;2.17;;;12.10;83.60;;;;;;9183541;19;20034;-67
2022/09/19 03:47:37;;;;;;;16.65;1.90;;;12.10;83.60;;;;;;9184220;19;20471;-67
2022/09/19 03:50:43;;;;;;;16.35;1.88;;;12.20;83.70;;;;;;9184064;19;20010;-67
2022/09/19 03:53:51;;;;;;;17.65;1.90;;;12.10;83.60;;;;;;9183548;19;20018;-68
2022/09/19 03:56:57;;;;;;;14.77;2.10;;;12.10;83.60;;;;;;9182920;19;20460;-67
2022/09/19 04:00:01;;;;;;;13.70;1.80;;;12.10;83.70;;;;;;9183690;19;20020;-68
2022/09/19 04:03:07;;;;;;;18.88;2.53;;;12.10;83.70;;;;;;9183387;19;20011;-67
2022/09/19 04:06:13;;;;;;;11.40;2.50;;;12.10;83.70;;;;;;9182107;19;20081;-67
2022/09/19 04:09:17;;;;;;;11.00;1.92;;;12.10;83.80;;;;;;9181289;19;20014;-68
2022/09/19 04:12:24;;;;;;;12.05;2.30;;;12.10;83.80;;;;;;9181808;19;20029;-66
2022/09/19 04:15:28;;;;;;;13.05;2.40;;;12.10;83.80;;;;;;9184353;19;20063;-67
2022/09/19 04:18:34;;;;;;;14.10;2.13;;;12.10;83.80;;;;;;9183423;19;20010;-68
2022/09/19 04:21:41;;;;;;;11.85;2.35;;;12.10;83.80;;;;;;9183113;19;20021;-67
2022/09/19 04:25:13;;;;;;;14.13;2.15;;;12.10;83.90;;;;;;9181546;19;20011;-67
2022/09/19 04:28:34;;;;;;;10.45;2.00;;;12.10;83.80;;;;;;9184024;19;20336;-67
2022/09/19 04:31:39;;;;;;;15.18;1.85;;;12.10;83.80;;;;;;9182179;19;20439;-67
2022/09/19 04:34:44;;;;;;;14.60;2.55;;;12.10;83.80;;;;;;9177511;19;20014;-67
2022/09/19 04:37:51;;;;;;;13.68;2.10;;;12.10;83.80;;;;;;9182899;19;20021;-68
2022/09/19 04:40:56;;;;;;;12.27;2.05;;;12.10;83.80;;;;;;9181579;19;20364;-67
2022/09/19 04:44:03;;;;;;;18.08;1.95;;;12.00;84.00;;;;;;9181907;19;20109;-67
2022/09/19 04:47:22;;;;;;;14.95;2.38;;;12.00;83.80;;;;;;9179913;19;20019;-68
2022/09/19 04:50:26;;;;;;;21.00;2.63;;;12.10;83.80;;;;;;9182397;19;20493;-68
2022/09/19 04:53:38;;;;;;;12.68;1.92;;;12.00;83.80;;;;;;9181190;19;20021;-68
2022/09/19 04:56:44;;;;;;;9.25;1.75;;;12.00;83.90;;;;;;9181906;19;20092;-68
2022/09/19 04:59:47;;;;;;;14.95;1.90;;;12.00;83.90;;;;;;9183359;19;20055;-66
2022/09/19 05:02:56;;;;;;;23.33;3.58;;;12.00;83.80;;;;;;9180064;19;20019;-66
2022/09/19 05:05:59;;;;;;;16.25;1.73;;;12.00;83.90;;;;;;9177616;19;20025;-68
2022/09/19 05:09:11;;;;;;;16.27;2.03;;;12.00;83.90;;;;;;9178815;19;20018;-67
2022/09/19 05:12:23;;;;;;;13.05;2.42;;;12.00;84.00;;;;;;9180826;19;20412;-67
2022/09/19 05:15:28;;;;;;;15.43;2.13;;;12.00;84.00;;;;;;9180536;19;20091;-68
2022/09/19 05:18:34;;;;;;;17.73;3.13;;;12.00;83.90;;;;;;9181092;19;20011;-66
2022/09/19 05:21:38;;;;;;;21.02;2.88;;;12.00;84.00;;;;;;9181914;19;20028;-67
2022/09/19 05:24:44;;;;;;;19.05;2.15;;;12.00;84.00;;;;;;9179923;19;20014;-66
2022/09/19 05:27:48;;;;;;;11.70;2.10;;;12.00;84.00;;;;;;9182025;19;20098;-68
2022/09/19 05:30:54;;;;;;;13.38;2.10;;;12.00;84.10;;;;;;9180746;19;20380;-67
2022/09/19 05:33:58;;;;;;;15.05;2.22;;;12.10;84.20;;;;;;9180085;19;20035;-67
2022/09/19 05:37:02;;;;;;;16.42;2.30;;;12.00;84.00;;;;;;9175818;19;20025;-67
2022/09/19 05:40:27;;;;;;;13.30;1.90;;;12.10;84.20;;;;;;9181100;19;20015;-66
2022/09/19 05:43:39;;;;;;;15.43;2.58;;;12.10;84.10;;;;;;9180720;19;20015;-68
2022/09/19 05:46:44;;;;;;;14.68;2.20;;;12.10;84.10;;;;;;9176867;19;20478;-68
2022/09/19 05:49:47;;;;;;;10.77;1.75;;;12.10;84.00;;;;;;9180576;19;20019;-68
2022/09/19 05:56:19;;;;;;;15.43;2.22;;;12.10;84.10;;;;;;9177705;19;20018;-67
2022/09/19 05:59:26;;;;;;;11.52;2.80;;;12.10;84.00;;;;;;9181537;19;20379;-66
2022/09/19 06:02:29;;;;;;;;;;;12.10;84.00;;;;;;9177727;19;20086;-66
2022/09/19 06:05:42;;;;;;;11.05;2.13;;;12.10;84.00;;;;;;9177068;19;19922;-65
2022/09/19 06:08:45;;;;;;;13.93;1.92;;;12.10;83.90;;;;;;9178528;19;20014;-67
2022/09/19 06:11:53;;;;;;;12.25;2.75;;;12.10;83.90;;;;;;9178745;19;20018;-67
2022/09/19 06:15:00;;;;;;;19.65;2.63;;;12.10;84.00;;;;;;9178226;19;20689;-67
2022/09/19 06:18:03;;;;;;;16.67;1.88;;;12.10;84.00;;;;;;9170126;19;20041;-66
2022/09/19 06:21:16;;;;;;;15.32;1.95;;;12.10;84.00;;;;;;9171294;19;20011;-65
2022/09/19 06:24:22;;;;;;;14.98;3.03;;;12.10;84.00;;;;;;9171007;19;20018;-66
2022/09/19 06:27:28;;;;;;;19.30;2.13;;;12.10;84.00;;;;;;9164339;19;20010;-68
2022/09/19 06:30:32;;;;;;;29.48;2.33;;;12.10;84.00;;;;;;9169735;19;20038;-64
2022/09/19 06:33:48;;;;;;;16.55;3.03;;;12.10;84.10;;;;;;9163553;19;20015;-64
2022/09/19 06:36:57;;;;;;;13.15;1.60;;;12.10;84.00;;;;;;9160959;19;20046;-65
2022/09/19 06:40:01;;;;;;;23.77;3.65;;;12.10;84.00;;;;;;9154010;19;20029;-65
2022/09/19 06:43:26;;;;;;;19.75;2.33;;;12.10;84.00;;;;;;9167403;19;20022;-63
2022/09/19 06:46:49;;;;;;;15.73;2.35;;;12.20;84.20;;;;;;9163029;19;20014;-67
2022/09/19 06:50:26;;;;;;;11.20;1.70;;;12.20;84.20;;;;;;9167991;19;20018;-65
2022/09/19 06:53:47;;;;;;;12.48;2.45;;;12.20;84.10;;;;;;9171643;19;20018;-63
2022/09/19 06:56:51;;;;;;;18.48;2.05;;;12.20;84.20;;;;;;9173869;19;20018;-64
2022/09/19 06:59:58;;;;;;;13.18;1.60;;;12.30;84.20;;;;;;9178618;19;20010;-64
2022/09/19 07:03:03;;;;;;;14.65;1.85;;;12.30;84.30;;;;;;9169983;19;20019;-66
2022/09/19 07:06:08;;;;;;;18.95;3.88;;;12.30;84.20;;;;;;9183306;19;20078;-65
2022/09/19 07:09:19;;;;;;;6.45;1.63;;;12.40;84.30;;;;;;9183516;19;20034;-65
2022/09/19 07:12:23;;;;;;;15.13;2.25;;;12.40;84.20;;;;;;9184883;19;20034;-65
2022/09/19 07:15:34;;;;;;;17.65;1.85;;;12.50;84.30;;;;;;9183850;19;20542;-66
2022/09/19 07:18:38;;;;;;;17.35;2.28;;;12.50;84.30;;;;;;9186331;19;20014;-67
2022/09/19 07:22:06;;;;;;;15.32;2.22;;;12.50;84.20;;;;;;9185188;19;20523;-66
2022/09/19 07:25:33;;;;;;;9.65;2.30;;;12.60;84.30;;;;;;9182498;19;20461;-66
2022/09/19 07:28:38;;;;;;;12.05;2.22;;;12.70;84.30;;;;;;9183686;19;20082;-67
2022/09/19 07:31:46;;;;;;;13.48;1.65;;;12.80;84.40;;;;;;9184262;19;20022;-66
2022/09/19 07:34:49;;;;;;;11.73;2.28;;;12.90;84.40;;;;;;9183395;19;20622;-67
2022/09/19 07:37:54;;;;;;;15.70;2.17;;;12.90;84.40;;;;;;9176513;19;20647;-65
2022/09/19 07:41:16;;;;;;;11.68;1.83;;;13.00;84.40;;;;;;9177856;19;20352;-67
2022/09/19 07:44:46;;;;;;;22.40;2.00;;;13.10;84.40;;;;;;9174712;19;20039;-67
2022/09/19 07:48:21;;;;;;;10.18;1.42;;;13.20;84.30;;;;;;9178707;19;20018;-67
2022/09/19 07:51:43;;;;;;;17.48;1.48;;;13.30;84.40;;;;;;9175844;19;20021;-65
2022/09/19 07:54:47;;;;;;;11.07;1.42;;;13.40;84.40;;;;;;9175779;19;20356;-68
2022/09/19 07:57:52;;;;;;;10.85;1.77;;;13.50;84.40;;;;;;9178065;19;20026;-68
2022/09/19 08:01:01;;;;;;;11.77;1.90;;;13.60;84.20;;;;;;9176840;19;20022;-64
2022/09/19 08:04:26;;;;;;;14.55;2.03;;;13.70;84.20;;;;;;9171371;19;20015;-68
2022/09/19 08:07:33;;;;;;;18.58;1.60;;;13.80;84.20;;;;;;9172890;19;20030;-68
2022/09/19 08:10:39;;;;;;;17.80;2.20;;;14.00;84.10;;;;;;9174857;19;20014;-68
2022/09/19 08:13:50;;;;;;;15.60;2.80;;;14.10;84.10;;;;;;9175139;19;20842;-66
2022/09/19 08:16:58;;;;;;;12.32;1.63;;;14.30;84.00;;;;;;9167027;19;20025;-67
2022/09/19 08:20:05;;;;;;;20.23;3.15;;;14.40;84.10;;;;;;9176236;19;20019;-67
2022/09/19 08:23:15;;;;;;;18.17;2.53;;;14.60;84.00;;;;;;9174843;19;20082;-68
2022/09/19 08:26:19;;;;;;;12.55;2.30;;;14.80;83.90;;;;;;9169587;19;20018;-68
2022/09/19 08:29:23;;;;;;;13.05;1.65;;;15.00;83.80;;;;;;9171327;19;20025;-67
2022/09/19 08:32:35;;;;;;;6.60;1.33;;;15.20;83.60;;;;;;9174348;19;20027;-68
2022/09/19 08:35:43;;;;;;;14.18;2.22;;;15.40;83.40;;;;;;9169322;19;20051;-68
2022/09/19 08:38:57;;;;;;;12.57;1.70;;;15.50;83.20;;;;;;9169836;19;20037;-67
2022/09/19 08:42:13;;;;;;;7.38;1.80;;;15.70;83.00;;;;;;9168310;19;20018;-69
2022/09/19 08:45:25;;;;;;;23.10;2.10;;;16.00;82.80;;;;;;9170348;19;20025;-69
2022/09/19 08:48:36;;;;;;;8.45;1.60;;;16.20;82.70;;;;;;9166453;19;20025;-69
2022/09/19 08:51:52;;;;;;;8.90;1.60;;;16.40;82.40;;;;;;9167474;19;20014;-68
2022/09/19 08:54:58;;;;;;;9.63;2.17;;;16.60;82.00;;;;;;9167810;19;20026;-70
2022/09/19 08:58:18;;;;;;;8.85;1.30;;;16.80;81.90;;;;;;9165563;19;20018;-67
2022/09/19 09:01:55;;;;;;;11.07;1.70;;;16.90;81.60;;;;;;9162094;19;20060;-68
2022/09/19 09:05:46;;;;;;;14.77;1.60;;;17.10;81.30;;;;;;9165343;19;20023;-68
2022/09/19 09:09:03;;;;;;;7.07;1.83;;;17.30;81.10;;;;;;9164957;19;20373;-68
2022/09/19 09:12:27;;;;;;;11.70;1.48;;;17.50;80.70;;;;;;9166362;19;20018;-67
2022/09/19 09:15:42;;;;;;;10.93;1.67;;;17.70;80.60;;;;;;9165126;19;20019;-68
2022/09/19 09:19:17;;;;;;;11.65;1.35;;;17.90;80.20;;;;;;9166979;19;20479;-68
2022/09/19 09:22:26;;;;;;;13.98;1.98;;;18.10;79.60;;;;;;9167072;19;20018;-67
2022/09/19 09:26:07;;;;;;;8.90;2.05;;;18.30;79.70;;;;;;9168554;19;20014;-68
2022/09/19 09:29:22;;;;;;;13.75;2.20;;;18.50;79.30;;;;;;9164722;19;20029;-67
2022/09/19 09:32:43;;;;;;;10.88;1.35;;;18.60;78.90;;;;;;9166047;19;20017;-68
2022/09/19 09:35:54;;;;;;;11.15;1.95;;;18.70;78.60;;;;;;9163623;19;20022;-70
2022/09/19 09:39:01;;;;;;;15.55;1.60;;;18.80;78.20;;;;;;9167415;19;20029;-67
2022/09/19 09:42:12;;;;;;;11.48;1.88;;;19.00;77.90;;;;;;9166671;19;20018;-66
2022/09/19 09:45:22;;;;;;;12.88;1.77;;;19.00;77.70;;;;;;9165591;19;20018;-66
2022/09/19 09:48:32;;;;;;;16.10;1.85;;;19.10;77.40;;;;;;9166870;19;20368;-66
2022/09/19 09:51:50;;;;;;;15.75;2.00;;;19.20;77.10;;;;;;9168242;19;20018;-69
2022/09/19 09:58:30;;;;;;;11.55;1.67;;;19.30;76.30;;;;;;9163247;19;20057;-67
2022/09/19 10:05:07;;;;;;;8.10;1.50;;;19.40;76.00;;;;;;9165013;19;20029;-71
2022/09/19 10:08:19;;;;;;;12.97;1.77;;;19.50;75.90;;;;;;9162736;19;20022;-69
2022/09/19 10:11:35;;;;;;;12.52;1.48;;;19.60;75.60;;;;;;9164565;19;20057;-70
2022/09/19 10:15:11;;;;;;;7.68;1.92;;;19.70;75.50;;;;;;9167144;19;20022;-66
2022/09/19 10:18:21;;;;;;;8.23;1.42;;;19.80;75.30;;;;;;9164700;19;20039;-72
2022/09/19 10:21:38;;;;;;;11.52;1.30;;;19.90;75.10;;;;;;9166886;19;20603;-71
2022/09/19 10:24:45;;;;;;;10.57;1.77;;;20.00;74.80;;;;;;9161947;19;20029;-67
2022/09/19 10:27:53;;;;;;;9.68;1.50;;;20.10;74.60;;;;;;9161117;19;20030;-69
2022/09/19 10:31:07;;;;;;;3.97;1.17;;;20.20;74.30;;;;;;9162763;19;20014;-70
2022/09/19 10:34:27;;;;;;;11.95;1.38;;;20.30;73.80;;;;;;9160939;19;20128;-69
2022/09/19 10:37:30;;;;;;;8.50;1.48;;;20.40;73.10;;;;;;9160720;19;20098;-69
2022/09/19 10:40:34;;;;;;;8.10;1.35;;;20.40;73.40;;;;;;9164695;19;20090;-71
2022/09/19 10:43:42;;;;;;;9.63;1.52;;;20.50;73.30;;;;;;9169525;19;20022;-68
2022/09/19 10:46:53;;;;;;;11.35;1.90;;;20.60;73.10;;;;;;9154652;19;20179;-65
2022/09/19 10:50:24;;;;;;;6.85;1.38;;;20.60;72.80;;;;;;9169261;19;20025;-73
2022/09/19 10:53:40;;;;;;;14.85;2.08;;;20.70;72.80;;;;;;9162411;19;20018;-73
2022/09/19 10:56:44;;;;;;;12.30;1.52;;;20.80;72.70;;;;;;9166527;19;20019;-70
2022/09/19 10:59:53;;;;;;;8.00;1.38;;;20.90;72.60;;;;;;9165577;19;20018;-71
2022/09/19 11:03:23;;;;;;;10.30;1.85;;;20.90;72.30;;;;;;9161474;19;20137;-70
2022/09/19 11:06:29;;;;;;;10.63;1.80;;;21.00;72.00;;;;;;9165373;19;20031;-70
2022/09/19 11:09:37;;;;;;;4.25;1.00;;;21.10;72.00;;;;;;9160126;19;20025;-66
2022/09/19 11:12:44;;;;;;;13.50;1.63;;;21.20;71.60;;;;;;9163192;19;20033;-69
2022/09/19 11:16:16;;;;;;;11.35;2.42;;;21.30;71.50;;;;;;9160196;19;20043;-69
2022/09/19 11:19:35;;;;;;;9.87;1.60;;;21.30;71.00;;;;;;9167309;19;20022;-68
2022/09/19 11:22:53;;;;;;;9.38;1.83;;;21.10;70.90;;;;;;9171050;19;20021;-68
2022/09/19 11:26:15;;;;;;;9.38;1.83;;;20.90;70.90;;;;;;9168497;19;20029;-69
2022/09/19 11:29:44;;;;;;;6.75;1.02;;;20.60;71.00;;;;;;9168131;19;20502;-70
2022/09/19 11:33:07;;;;;;;6.53;1.35;;;20.30;71.00;;;;;;9165462;19;20018;-69
2022/09/19 11:36:48;;;;;;;6.75;1.08;;;20.00;71.20;;;;;;9159688;19;20495;-67
2022/09/19 11:40:04;;;;;;;11.65;1.58;;;19.80;71.50;;;;;;9163880;19;20022;-67
2022/09/19 11:43:23;;;;;;;6.97;1.15;;;19.50;71.60;;;;;;9172115;19;20058;-67
2022/09/19 11:46:39;;;;;;;;;;;19.30;71.80;;;;;;9168647;19;20034;-66
2022/09/19 11:50:10;;;;;;;3.22;0.82;;;19.20;72.30;;;;;;9168642;19;19938;-68
2022/09/19 11:53:29;;;;;;;7.85;1.80;;;19.00;72.50;;;;;;9168766;19;20021;-69
2022/09/19 11:56:59;;;;;;;9.77;1.20;;;18.80;72.90;;;;;;9168432;19;20024;-68
2022/09/19 12:00:20;;;;;;;6.45;0.70;;;18.60;73.10;;;;;;9162905;19;20079;-66
2022/09/19 12:03:52;;;;;;;14.32;1.45;;;18.60;73.40;;;;;;9167887;19;20022;-67
2022/09/19 12:07:18;;;;;;;4.60;1.40;;;18.60;73.60;;;;;;9166527;19;20022;-70
2022/09/19 12:10:35;;;;;;;5.90;1.20;;;18.50;73.80;;;;;;9164508;19;20478;-69
2022/09/19 12:13:44;;;;;;;5.97;1.13;;;18.60;74.00;;;;;;9172351;19;20032;-69
2022/09/19 12:16:54;;;;;;;3.72;1.30;;;18.70;74.10;;;;;;9167586;19;20022;-68
2022/09/19 12:20:07;;;;;;;4.10;1.00;;;18.80;74.30;;;;;;9166120;19;20015;-69
2022/09/19 12:26:53;;;;;;;7.85;1.35;;;19.00;74.20;;;;;;9164016;19;20358;-69
2022/09/19 12:30:05;;;;;;;12.27;1.83;;;19.10;74.30;;;;;;9168144;19;20031;-68
2022/09/19 12:33:17;;;;;;;6.20;1.83;;;19.20;74.20;;;;;;9172758;19;20048;-68
2022/09/19 12:36:29;;;;;;;2.72;0.82;;;19.30;73.90;;;;;;9174887;19;20090;-68
2022/09/19 12:39:40;;;;;;;4.03;0.82;;;19.40;73.40;;;;;;9170138;19;20026;-70
2022/09/19 12:42:51;;;;;;;5.32;1.05;;;19.40;73.10;;;;;;9170965;19;20025;-71
2022/09/19 12:46:05;;;;;;;3.22;0.90;;;19.40;72.90;;;;;;9168069;19;20010;-70
2022/09/19 12:49:21;;;;;;;5.95;0.93;;;19.40;72.60;;;;;;9166827;19;20015;-66
2022/09/19 12:52:38;;;;;;;2.72;0.60;;;19.40;72.20;;;;;;9168680;19;20062;-65
2022/09/19 12:55:53;;;;;;;4.35;0.60;;;19.40;72.10;;;;;;9170516;19;20029;-70
2022/09/19 12:59:05;;;;;;;4.00;0.65;;;19.30;71.80;;;;;;9169390;19;20105;-67
2022/09/19 13:02:20;;;;;;;3.47;1.08;;;19.30;71.70;;;;;;9163683;19;20019;-67
2022/09/19 13:05:33;;;;;;;5.07;0.82;;;19.20;71.40;;;;;;9169008;19;20058;-70
2022/09/19 13:08:41;;;;;;;5.55;0.90;;;19.10;71.40;;;;;;9171557;19;20086;-70
2022/09/19 13:11:51;;;;;;;4.25;1.00;;;19.00;71.60;;;;;;9175230;19;20486;-70
2022/09/19 13:15:02;;;;;;;3.20;0.70;;;18.90;71.50;;;;;;9172515;19;20018;-68
2022/09/19 13:24:59;;;;;;;5.63;1.00;;;18.60;71.60;;;;;;9173233;19;20018;-70
2022/09/19 13:28:34;;;;;;;6.00;1.17;;;18.60;71.70;;;;;;9170926;19;20067;-70
2022/09/19 13:32:00;;;;;;;7.32;0.82;;;18.50;71.50;;;;;;9170182;19;20014;-69
2022/09/19 13:35:22;;;;;;;5.38;1.25;;;18.40;71.40;;;;;;9170169;19;20035;-70
2022/09/19 13:38:38;;;;;;;5.55;1.13;;;18.40;71.70;;;;;;9170958;19;20026;-70
2022/09/19 13:41:46;;;;;;;5.35;1.15;;;18.40;71.60;;;;;;9169393;19;20022;-69
2022/09/19 13:45:01;;;;;;;8.57;1.38;;;18.30;71.60;;;;;;9174080;19;20495;-70
2022/09/19 13:48:14;;;;;;;5.78;1.10;;;18.30;71.40;;;;;;9170680;19;20022;-71
2022/09/19 13:51:31;;;;;;;5.25;1.40;;;18.20;71.20;;;;;;9175122;19;20043;-69
2022/09/19 13:54:44;;;;;;;10.65;1.80;;;18.20;71.30;;;;;;9167448;19;20074;-71
2022/09/19 13:57:48;;;;;;;9.65;1.40;;;18.20;71.40;;;;;;9173534;19;20086;-71
2022/09/19 14:01:21;;;;;;;5.80;1.38;;;18.20;71.30;;;;;;9166772;19;20015;-72
2022/09/19 14:04:55;;;;;;;9.07;1.52;;;18.20;71.10;;;;;;9172905;19;20018;-70
2022/09/19 14:08:01;;;;;;;6.30;1.73;;;18.20;71.10;;;;;;9171098;19;20026;-70
2022/09/19 14:11:31;;;;;;;8.80;1.80;;;18.20;71.20;;;;;;9173517;19;20018;-71
2022/09/19 14:14:54;;;;;;;8.25;1.50;;;18.20;71.10;;;;;;9172276;19;20023;-70
2022/09/19 14:18:24;;;;;;;6.68;1.63;;;18.20;71.00;;;;;;9174248;19;20010;-71
2022/09/19 14:21:58;;;;;;;10.13;1.35;;;18.20;71.10;;;;;;9170886;19;20022;-70
2022/09/19 14:25:05;;;;;;;11.05;2.00;;;18.20;70.80;;;;;;9169958;19;20018;-71
2022/09/19 14:28:43;;;;;;;10.68;1.70;;;18.10;70.90;;;;;;9169593;19;20019;-68
2022/09/19 14:31:59;;;;;;;15.90;1.35;;;18.10;70.80;;;;;;9171053;19;20019;-70
2022/09/19 14:35:34;;;;;;;4.18;1.10;;;18.10;70.90;;;;;;9171279;19;20041;-71
2022/09/19 14:39:10;;;;;;;6.25;1.38;;;18.00;70.80;;;;;;9171268;19;20364;-71
2022/09/19 14:42:36;;;;;;;8.38;1.23;;;17.90;70.80;;;;;;9172648;19;20343;-72
2022/09/19 14:46:13;;;;;;;8.80;2.00;;;17.90;71.10;;;;;;9171438;19;20055;-69
2022/09/19 14:49:25;;;;;;;9.73;1.55;;;17.90;71.10;;;;;;9169295;19;20720;-71
2022/09/19 14:52:31;;;;;;;17.45;2.08;;;17.90;71.30;;;;;;9172973;19;20038;-67
2022/09/19 14:55:44;;;;;;;10.65;1.73;;;17.90;71.30;;;;;;9170465;19;20102;-70
2022/09/19 14:58:53;;;;;;;8.30;1.33;;;17.90;71.00;;;;;;9171301;19;20025;-72
2022/09/19 15:02:09;;;;;;;7.97;1.52;;;17.90;70.80;;;;;;9167847;19;20850;-72
2022/09/19 15:05:19;;;;;;;12.73;2.08;;;17.80;70.30;;;;;;9175002;19;20022;-71
2022/09/19 15:08:28;;;;;;;7.30;1.38;;;17.70;70.20;;;;;;9173697;19;20006;-72
2022/09/19 15:11:34;;;;;;;9.35;1.75;;;17.60;70.10;;;;;;9178273;19;20023;-73
2022/09/19 15:14:44;;;;;;;11.52;1.73;;;17.60;70.20;;;;;;9181545;19;20024;-70
2022/09/19 15:17:48;;;;;;;7.55;1.20;;;17.60;70.10;;;;;;9186345;19;20045;-73
2022/09/19 15:20:58;;;;;;;9.40;1.63;;;17.50;70.10;;;;;;9186494;19;20025;-72
2022/09/19 15:24:06;;;;;;;8.27;1.52;;;17.50;70.10;;;;;;9184418;19;20019;-72
2022/09/19 15:27:14;;;;;;;11.55;1.88;;;17.40;70.10;;;;;;9183907;19;20015;-73
2022/09/19 15:30:22;;;;;;;9.77;2.30;;;17.40;70.10;;;;;;9180816;19;20048;-73
2022/09/19 15:33:27;;;;;;;15.45;1.70;;;17.40;70.10;;;;;;9173893;19;20022;-68
2022/09/19 15:36:36;;;;;;;6.18;1.38;;;17.30;70.00;;;;;;9180146;19;20109;-73
2022/09/19 15:39:40;;;;;;;7.85;1.67;;;17.30;70.00;;;;;;9185657;19;20453;-73
2022/09/19 15:42:46;;;;;;;;;;;17.20;69.90;;;;;;9185877;19;20019;-72
2022/09/19 15:45:51;;;;;;;8.80;1.73;;;17.20;70.00;;;;;;9183997;19;19919;-72
2022/09/19 15:48:58;;;;;;;14.10;2.45;;;17.10;70.10;;;;;;9183243;19;20011;-74
2022/09/19 15:52:07;;;;;;;13.35;1.67;;;17.10;70.00;;;;;;9185630;19;20010;-72
2022/09/19 15:55:25;;;;;;;11.70;2.15;;;17.10;69.90;;;;;;9186051;19;20082;-72
2022/09/19 15:58:39;;;;;;;10.32;1.45;;;17.00;69.70;;;;;;9184354;19;20772;-74
2022/09/19 16:01:48;;;;;;;8.68;1.77;;;17.00;69.80;;;;;;9180372;19;20476;-71
2022/09/19 16:05:06;;;;;;;10.00;2.17;;;16.90;69.80;;;;;;9185446;19;20029;-73
2022/09/19 16:11:47;;;;;;;13.68;2.13;;;16.80;69.60;;;;;;9184799;19;20395;-73
2022/09/19 16:14:58;;;;;;;14.60;1.70;;;16.80;69.70;;;;;;9184646;19;20024;-73
2022/09/19 16:18:19;;;;;;;9.75;1.90;;;16.70;69.60;;;;;;9184681;19;20051;-74
2022/09/19 16:21:29;;;;;;;13.55;1.65;;;16.60;69.50;;;;;;9183809;19;20019;-70
2022/09/19 16:24:45;;;;;;;5.15;1.40;;;16.60;69.60;;;;;;9183661;19;20011;-73
2022/09/19 16:27:49;;;;;;;14.80;1.88;;;16.50;69.10;;;;;;9181630;19;20050;-72
2022/09/19 16:30:58;;;;;;;10.63;1.85;;;16.40;69.20;;;;;;9182233;19;20018;-71
2022/09/19 16:34:05;;;;;;;8.77;1.60;;;16.40;69.60;;;;;;9168163;19;20022;-71
2022/09/19 16:37:42;;;;;;;12.98;1.80;;;16.30;69.00;;;;;;9168203;19;20022;-72
2022/09/19 16:40:57;;;;;;;11.90;1.77;;;16.30;68.70;;;;;;9168721;19;20019;-69
2022/09/19 16:44:02;;;;;;;13.43;2.25;;;16.20;68.70;;;;;;9176848;19;20037;-70
2022/09/19 16:47:17;;;;;;;13.35;1.88;;;16.20;68.90;;;;;;9173346;19;20352;-71
2022/09/19 16:50:25;;;;;;;8.73;1.55;;;16.10;68.60;;;;;;9173474;19;20019;-69
2022/09/19 16:53:30;;;;;;;7.05;2.08;;;16.10;68.70;;;;;;9175351;19;20051;-71
2022/09/19 16:56:33;;;;;;;12.20;2.20;;;16.00;68.60;;;;;;9175426;19;20484;-67
2022/09/19 16:59:37;;;;;;;9.80;1.63;;;15.90;68.60;;;;;;9173981;19;20078;-72